Time;durP1;ratioP1;P1;durP2;ratioP2;P2;SDS_P1;SDS_P2;PMS_P1;PMS_P2;Temp;Humidity;BMP_temperature;BMP_pressure;BME280_temperature;BME280_humidity;BME280_pressure;Samples;Min_cycle;Max_cycle;Signal;HPM_P1;HPM_P2
2023/09/30 00:01:40;;;;;;;5.57;2.37;;;;;;;20.85;74.15;101196.06;4985654;28;20228;-70
2023/09/30 00:04:07;;;;;;;5.80;2.73;;;;;;;20.85;73.83;101194.06;4988934;28;20181;-69
2023/09/30 00:06:32;;;;;;;3.90;2.10;;;;;;;20.86;73.74;101183.38;4990327;28;20185;-70
2023/09/30 00:08:57;;;;;;;4.00;2.10;;;;;;;20.85;73.71;101178.84;4988742;28;20468;-70
2023/09/30 00:11:23;;;;;;;5.47;2.10;;;;;;;20.85;73.90;101182.56;4950253;28;20214;-70
2023/09/30 00:13:49;;;;;;;4.17;1.90;;;;;;;20.85;74.11;101179.69;4986437;28;20186;-70
2023/09/30 00:16:17;;;;;;;5.53;2.50;;;;;;;20.85;73.77;101182.56;4986503;28;20238;-70
2023/09/30 00:18:42;;;;;;;5.13;2.20;;;;;;;20.86;74.16;101184.22;4972491;28;20209;-70
2023/09/30 00:21:08;;;;;;;5.17;2.10;;;;;;;20.85;73.60;101176.84;4971972;28;20469;-70
2023/09/30 00:23:33;;;;;;;6.73;2.27;;;;;;;20.85;73.75;101179.69;4971223;28;20183;-70
2023/09/30 00:26:00;;;;;;;5.30;2.20;;;;;;;20.86;73.81;101194.88;4971089;28;20166;-70
2023/09/30 00:28:25;;;;;;;4.77;2.10;;;;;;;20.86;73.86;101195.72;4973586;28;20747;-70
2023/09/30 00:30:50;;;;;;;4.37;1.80;;;;;;;20.85;73.90;101205.53;4989466;28;20437;-70
2023/09/30 00:33:16;;;;;;;4.90;2.10;;;;;;;20.85;73.81;101196.94;4988079;28;20186;-70
2023/09/30 00:35:42;;;;;;;4.37;2.30;;;;;;;20.85;73.85;101199.78;4973281;28;21061;-70
2023/09/30 00:38:08;;;;;;;5.17;2.40;;;;;;;20.85;73.52;101202.66;4971064;28;20232;-70
2023/09/30 00:40:35;;;;;;;5.30;2.10;;;;;;;20.85;73.96;101196.94;4976817;28;20181;-70
2023/09/30 00:43:01;;;;;;;4.80;2.20;;;;;;;20.85;73.97;101199.78;4986626;28;20590;-69
2023/09/30 00:45:27;;;;;;;5.00;2.07;;;;;;;20.85;73.88;101194.06;4970602;28;20418;-70
2023/09/30 00:47:53;;;;;;;6.03;2.10;;;;;;;20.85;73.64;101199.78;4985570;28;20516;-70
2023/09/30 00:50:19;;;;;;;5.00;2.13;;;;;;;20.84;73.86;101192.41;4984331;28;20474;-70
2023/09/30 00:52:45;;;;;;;4.63;2.10;;;;;;;20.84;73.98;101192.41;4987432;28;20558;-70
2023/09/30 00:55:10;;;;;;;5.10;1.93;;;;;;;20.85;73.47;101194.06;4983927;28;20413;-69
2023/09/30 00:57:36;;;;;;;5.93;2.50;;;;;;;20.84;73.94;101198.13;4986104;28;20245;-70
2023/09/30 01:00:01;;;;;;;4.17;2.17;;;;;;;20.85;73.86;101204.69;4970855;28;20253;-70
2023/09/30 01:02:27;;;;;;;5.53;2.13;;;;;;;20.85;73.74;101210.44;4985015;28;20776;-66
2023/09/30 01:04:52;;;;;;;4.07;1.87;;;;;;;20.85;73.41;101211.28;4987454;28;20249;-66
2023/09/30 01:07:21;;;;;;;4.53;1.73;;;;;;;20.85;73.95;101205.53;4988054;28;20193;-66
2023/09/30 01:09:47;;;;;;;4.07;1.80;;;;;;;20.84;73.37;101203.88;4989498;28;20815;-66
2023/09/30 01:12:12;;;;;;;4.90;2.30;;;;;;;20.84;73.75;101203.88;4972225;28;20450;-66
2023/09/30 01:14:42;;;;;;;5.60;2.10;;;;;;;20.83;73.90;101190.72;4987752;28;20189;-66
2023/09/30 01:17:13;;;;;;;4.83;2.07;;;;;;;20.84;73.80;101201.00;4991976;28;20630;-66
2023/09/30 01:19:39;;;;;;;5.33;2.20;;;;;;;20.84;73.85;101205.91;4991144;28;20396;-66
2023/09/30 01:22:04;;;;;;;4.40;1.97;;;;;;;20.83;73.41;101201.38;4990387;28;20424;-66
2023/09/30 01:24:30;;;;;;;4.50;1.73;;;;;;;20.84;73.57;101198.13;4987629;28;20601;-66
2023/09/30 01:26:56;;;;;;;5.40;1.90;;;;;;;20.84;73.68;101203.88;4990869;28;20239;-66
2023/09/30 01:29:22;;;;;;;6.10;2.07;;;;;;;20.84;73.54;101206.75;4987900;28;20220;-66
2023/09/30 01:31:48;;;;;;;5.00;2.33;;;;;;;20.84;73.44;101201.00;4987166;28;20429;-66
2023/09/30 01:34:14;;;;;;;6.07;2.20;;;;;;;20.84;73.53;101203.03;4973888;28;20282;-66
2023/09/30 01:36:39;;;;;;;4.77;2.00;;;;;;;20.84;73.49;101206.75;4986431;28;20428;-66
2023/09/30 01:39:07;;;;;;;6.43;2.27;;;;;;;20.81;73.45;101201.75;4990121;28;20435;-66
2023/09/30 01:41:32;;;;;;;5.80;2.00;;;;;;;20.83;73.80;101205.06;4983919;28;20212;-66
2023/09/30 01:43:58;;;;;;;4.10;1.80;;;;;;;20.84;72.91;101206.75;4956347;28;20525;-67
2023/09/30 01:46:23;;;;;;;5.67;2.37;;;;;;;20.83;73.45;101202.19;4972686;28;20221;-66
2023/09/30 01:48:49;;;;;;;4.50;2.20;;;;;;;20.84;73.30;101203.03;4978642;28;20193;-66
2023/09/30 01:51:14;;;;;;;5.90;2.67;;;;;;;20.83;73.58;101210.78;4990774;28;20189;-66
2023/09/30 01:53:40;;;;;;;5.10;1.83;;;;;;;20.83;73.81;101207.94;4980937;28;20776;-66
2023/09/30 01:56:06;;;;;;;5.53;2.53;;;;;;;20.83;73.38;101215.72;4987389;28;20197;-66
2023/09/30 01:58:31;;;;;;;4.13;1.80;;;;;;;20.84;73.41;101223.97;4973058;28;20453;-66
2023/09/30 02:01:03;;;;;;;3.80;1.83;;;;;;;20.83;73.72;101213.66;5001207;28;20182;-66
2023/09/30 02:03:29;;;;;;;5.53;2.77;;;;;;;20.83;73.09;101219.41;4991780;28;20236;-66
2023/09/30 02:05:55;;;;;;;4.53;1.97;;;;;;;20.84;73.18;101226.84;4993258;28;20861;-66
2023/09/30 02:08:20;;;;;;;4.90;1.93;;;;;;;20.82;73.50;101226.38;4990708;28;20182;-70
2023/09/30 02:10:46;;;;;;;4.33;2.10;;;;;;;20.83;72.55;101225.16;4984706;28;20209;-70
2023/09/30 02:13:12;;;;;;;4.50;1.87;;;;;;;20.82;73.72;101217.75;4973900;28;20277;-70
2023/09/30 02:15:40;;;;;;;3.83;1.80;;;;;;;20.83;73.82;101224.34;4974919;28;20422;-71
2023/09/30 02:18:06;;;;;;;4.67;2.03;;;;;;;20.82;74.15;101217.75;4973620;28;20256;-70
2023/09/30 02:20:31;;;;;;;4.20;1.83;;;;;;;20.82;73.65;101223.50;4982373;28;21226;-71
2023/09/30 02:22:58;;;;;;;4.70;1.90;;;;;;;20.83;73.41;101224.34;4992873;28;20649;-70
2023/09/30 02:25:24;;;;;;;3.47;1.60;;;;;;;20.82;73.25;101217.75;4991011;28;20240;-70
2023/09/30 02:27:50;;;;;;;3.47;1.70;;;;;;;20.81;73.43;101221.00;4941521;28;20844;-70
2023/09/30 02:30:16;;;;;;;5.43;2.00;;;;;;;20.81;73.61;101221.84;4971977;28;20293;-70
2023/09/30 02:32:41;;;;;;;3.83;1.80;;;;;;;20.81;72.98;101221.00;4975444;28;20182;-70
2023/09/30 02:35:08;;;;;;;3.90;1.93;;;;;;;20.83;73.26;101218.59;4987206;28;20434;-71
2023/09/30 02:37:37;;;;;;;4.77;2.30;;;;;;;20.82;73.31;101226.38;4972011;28;20572;-70
2023/09/30 02:40:09;;;;;;;4.57;2.00;;;;;;;20.82;73.24;101234.97;4973520;28;20418;-70
2023/09/30 02:42:37;;;;;;;3.40;1.70;;;;;;;20.81;73.34;101224.72;4974079;28;20445;-70
2023/09/30 02:45:04;;;;;;;4.00;1.80;;;;;;;20.81;73.62;101224.72;4988526;28;20440;-69
2023/09/30 02:47:29;;;;;;;3.97;1.83;;;;;;;20.83;73.46;101235.81;4987657;28;21093;-70
2023/09/30 02:49:56;;;;;;;4.47;2.00;;;;;;;20.83;73.27;101232.94;4988780;28;20468;-70
2023/09/30 02:52:22;;;;;;;4.27;1.63;;;;;;;20.81;73.33;101227.56;4988786;28;20185;-70
2023/09/30 02:54:47;;;;;;;5.00;2.10;;;;;;;20.81;73.71;101221.84;4970653;28;20456;-70
2023/09/30 02:57:15;;;;;;;4.53;2.07;;;;;;;20.83;73.54;101228.03;4976292;28;20186;-70
2023/09/30 02:59:40;;;;;;;4.20;1.90;;;;;;;20.83;73.33;101232.94;4973148;28;20472;-70
2023/09/30 03:02:06;;;;;;;3.97;1.93;;;;;;;20.81;73.52;101233.31;4990567;28;20430;-70
2023/09/30 03:04:32;;;;;;;3.87;1.90;;;;;;;20.82;73.22;101234.97;4975862;28;20178;-70
2023/09/30 03:06:58;;;;;;;4.13;1.90;;;;;;;20.83;73.50;101235.81;4971690;28;20460;-71
2023/09/30 03:09:23;;;;;;;3.83;2.50;;;;;;;20.81;73.48;101236.19;4975298;28;20809;-70
2023/09/30 03:11:49;;;;;;;4.43;1.80;;;;;;;20.83;73.44;101228.03;4988178;28;20627;-70
2023/09/30 03:14:15;;;;;;;5.17;2.10;;;;;;;20.82;73.50;101229.22;4983925;28;20187;-70
2023/09/30 03:16:41;;;;;;;3.90;1.90;;;;;;;20.81;73.15;101227.56;4985325;28;20472;-70
2023/09/30 03:19:08;;;;;;;4.30;1.90;;;;;;;20.82;73.26;101228.41;4990593;28;20177;-70
2023/09/30 03:21:36;;;;;;;4.40;1.77;;;;;;;20.81;73.49;101218.13;4988768;28;20436;-70
2023/09/30 03:24:04;;;;;;;3.90;1.73;;;;;;;20.81;73.63;101221.00;4987240;28;20898;-70
2023/09/30 03:26:29;;;;;;;4.80;1.63;;;;;;;20.81;73.64;101226.72;4978047;28;20444;-70
2023/09/30 03:28:55;;;;;;;4.33;1.70;;;;;;;20.82;73.57;101217.75;4987014;28;20450;-70
2023/09/30 03:31:20;;;;;;;4.43;1.90;;;;;;;20.81;73.70;101204.63;4972555;28;20907;-70
2023/09/30 03:33:47;;;;;;;4.60;2.33;;;;;;;20.81;73.09;101203.78;4970214;28;20646;-70
2023/09/30 03:36:13;;;;;;;4.13;2.13;;;;;;;20.82;72.83;101212.00;4970170;28;20261;-70
2023/09/30 03:38:39;;;;;;;4.37;1.93;;;;;;;20.82;73.09;101212.00;4996068;28;20448;-70
2023/09/30 03:41:08;;;;;;;3.40;1.57;;;;;;;20.80;73.57;101202.97;4988066;28;20210;-70
2023/09/30 03:43:35;;;;;;;3.87;1.60;;;;;;;20.80;73.18;101200.09;4986093;28;20198;-69
2023/09/30 03:46:00;;;;;;;4.00;1.63;;;;;;;20.81;73.41;101215.25;5002785;28;20421;-70
2023/09/30 03:48:26;;;;;;;3.70;1.80;;;;;;;20.81;73.18;101221.84;4986721;28;20781;-70
2023/09/30 03:50:52;;;;;;;3.70;1.63;;;;;;;20.82;73.38;101223.50;4983598;28;20833;-70
2023/09/30 03:53:19;;;;;;;3.70;1.70;;;;;;;20.80;73.15;101225.91;4988294;28;20185;-70
2023/09/30 03:55:45;;;;;;;3.40;1.70;;;;;;;20.80;73.78;101225.91;4985818;28;20437;-70
2023/09/30 03:58:12;;;;;;;3.33;1.53;;;;;;;20.80;73.35;101225.91;4986210;28;20297;-71
2023/09/30 04:00:38;;;;;;;3.90;1.80;;;;;;;20.80;73.39;101220.19;4988787;28;20432;-70
2023/09/30 04:03:05;;;;;;;4.97;2.20;;;;;;;20.80;73.61;101219.34;4977541;28;20795;-70
2023/09/30 04:05:33;;;;;;;3.60;1.70;;;;;;;20.81;73.30;101221.84;4970451;28;20414;-70
2023/09/30 04:07:59;;;;;;;5.10;1.90;;;;;;;20.80;73.24;101216.47;4988595;28;20214;-71
2023/09/30 04:10:25;;;;;;;5.00;2.00;;;;;;;20.80;73.50;101223.06;4995060;28;20859;-70
2023/09/30 04:12:50;;;;;;;3.67;1.70;;;;;;;20.80;73.21;101237.41;4991170;28;20240;-70
2023/09/30 04:15:16;;;;;;;3.67;1.80;;;;;;;20.80;73.30;101234.53;4988990;28;20676;-70
2023/09/30 04:17:42;;;;;;;3.23;1.53;;;;;;;20.80;73.40;101223.06;5004934;28;20224;-70
2023/09/30 04:20:15;;;;;;;7.70;1.90;;;;;;;20.81;73.25;101232.47;4992735;28;20416;-70
2023/09/30 04:22:41;;;;;;;4.40;1.80;;;;;;;20.81;73.38;101239.06;4993112;28;20192;-70
2023/09/30 04:25:10;;;;;;;4.10;1.70;;;;;;;20.80;73.08;101240.28;4992652;28;20853;-70
2023/09/30 04:27:36;;;;;;;4.20;1.73;;;;;;;20.81;73.62;101235.34;5007457;28;20184;-70
2023/09/30 04:30:08;;;;;;;3.03;1.60;;;;;;;20.81;73.14;101241.09;4992338;28;20472;-70
2023/09/30 04:32:35;;;;;;;4.40;2.00;;;;;;;20.80;73.29;101246.00;5008446;28;20399;-70
2023/09/30 04:35:00;;;;;;;3.30;1.73;;;;;;;20.80;73.57;101248.88;5003743;28;20532;-70
2023/09/30 04:37:26;;;;;;;3.80;1.70;;;;;;;20.79;73.18;101241.47;4987431;28;20421;-70
2023/09/30 04:39:53;;;;;;;3.30;1.90;;;;;;;20.80;73.12;101243.13;4991433;28;20180;-70
2023/09/30 04:42:18;;;;;;;3.80;1.73;;;;;;;20.81;72.91;101255.44;4989599;28;20220;-70
2023/09/30 04:44:44;;;;;;;4.00;1.60;;;;;;;20.81;73.08;101252.56;4988319;28;20426;-70
2023/09/30 04:47:09;;;;;;;3.97;1.70;;;;;;;20.80;73.07;101237.41;4989923;28;20212;-70
2023/09/30 04:49:35;;;;;;;3.37;1.67;;;;;;;20.81;73.49;101243.94;4998723;28;20252;-70
2023/09/30 04:52:01;;;;;;;3.50;1.60;;;;;;;20.81;73.21;101250.53;5009747;28;20173;-70
2023/09/30 04:54:26;;;;;;;2.93;1.40;;;;;;;20.80;73.10;101243.13;4992085;28;20655;-70
2023/09/30 04:56:51;;;;;;;3.10;1.50;;;;;;;20.81;73.15;101246.81;4978489;28;20185;-70
2023/09/30 04:59:17;;;;;;;3.20;1.70;;;;;;;20.79;73.35;101247.22;4990405;28;20165;-70
2023/09/30 05:01:42;;;;;;;2.90;1.30;;;;;;;20.79;73.30;101247.22;4965447;28;20248;-70
2023/09/30 05:04:08;;;;;;;2.63;1.30;;;;;;;20.79;73.51;101247.22;4989654;28;20173;-70
2023/09/30 05:06:33;;;;;;;3.27;1.43;;;;;;;20.79;73.31;101252.97;4987827;28;20172;-70
2023/09/30 05:08:59;;;;;;;3.87;1.67;;;;;;;20.78;72.99;101242.66;4971290;28;20206;-70
2023/09/30 05:11:25;;;;;;;4.20;1.80;;;;;;;20.79;72.80;101244.34;5003805;28;20213;-70
2023/09/30 05:13:50;;;;;;;3.50;1.77;;;;;;;20.80;73.54;101253.78;5007151;28;20404;-70
2023/09/30 05:16:17;;;;;;;4.00;1.80;;;;;;;20.80;73.19;101246.00;5006251;28;20224;-70
2023/09/30 05:18:43;;;;;;;3.93;1.90;;;;;;;20.79;72.92;101250.09;5008040;28;20515;-70
2023/09/30 05:21:08;;;;;;;3.87;1.83;;;;;;;20.80;73.15;101248.03;4990907;28;20430;-69
2023/09/30 05:23:34;;;;;;;3.40;1.77;;;;;;;20.79;73.17;101252.97;5003664;28;20771;-70
2023/09/30 05:26:00;;;;;;;3.10;1.50;;;;;;;20.79;73.60;101263.59;5002748;28;20180;-70
2023/09/30 05:28:27;;;;;;;5.03;2.10;;;;;;;20.80;73.09;101276.75;5005155;28;20202;-70
2023/09/30 05:30:53;;;;;;;3.70;1.70;;;;;;;20.79;73.33;101267.31;4986894;28;20949;-70
2023/09/30 05:33:18;;;;;;;3.73;1.60;;;;;;;20.79;73.56;101264.44;4988783;28;20429;-70
2023/09/30 05:35:43;;;;;;;3.93;1.90;;;;;;;20.80;73.34;101266.09;4989044;28;20405;-69
2023/09/30 05:38:10;;;;;;;3.90;1.50;;;;;;;20.79;73.12;101264.44;4985233;28;20204;-70
2023/09/30 05:40:35;;;;;;;2.70;1.40;;;;;;;20.78;73.33;101262.75;5007797;28;20177;-70
2023/09/30 05:43:01;;;;;;;2.80;1.57;;;;;;;20.78;73.34;101257.00;4990259;28;21030;-71
2023/09/30 05:45:27;;;;;;;4.30;1.73;;;;;;;20.78;73.46;101251.28;4991969;28;20170;-70
2023/09/30 05:47:54;;;;;;;4.53;1.97;;;;;;;20.79;73.34;101270.19;4990673;28;20220;-70
2023/09/30 05:50:24;;;;;;;3.50;1.60;;;;;;;20.79;73.12;101273.06;4991980;28;20450;-70
2023/09/30 05:52:50;;;;;;;4.03;1.53;;;;;;;20.79;73.16;101270.19;5007265;28;20432;-70
2023/09/30 05:55:20;;;;;;;2.70;1.20;;;;;;;20.79;73.36;101269.34;4972452;28;20480;-70
2023/09/30 05:57:49;;;;;;;3.70;1.40;;;;;;;20.79;73.25;101275.91;4994851;28;20440;-70
2023/09/30 06:00:20;;;;;;;2.90;1.43;;;;;;;20.79;73.06;101284.53;4992394;28;20454;-70
2023/09/30 06:02:47;;;;;;;3.70;1.80;;;;;;;20.79;73.24;101281.66;5008063;28;20422;-70
2023/09/30 06:05:12;;;;;;;4.30;1.77;;;;;;;20.79;73.02;101281.66;4990097;28;20432;-70
2023/09/30 06:07:38;;;;;;;4.07;1.60;;;;;;;20.79;73.33;101283.69;4991475;28;21057;-70
2023/09/30 06:10:05;;;;;;;2.80;1.30;;;;;;;20.78;73.08;101279.97;4989146;28;20232;-70
2023/09/30 06:12:31;;;;;;;3.77;1.47;;;;;;;20.79;73.33;101287.41;4991701;28;20208;-70
2023/09/30 06:14:56;;;;;;;3.13;1.30;;;;;;;20.78;73.38;101288.59;5007768;28;20497;-71
2023/09/30 06:17:22;;;;;;;3.13;1.97;;;;;;;20.78;73.06;101279.97;5002574;28;20723;-70
2023/09/30 06:19:50;;;;;;;3.53;1.87;;;;;;;20.79;73.05;101304.63;4988907;28;20177;-70
2023/09/30 06:22:16;;;;;;;3.37;1.40;;;;;;;20.79;73.57;101303.78;4975461;28;20256;-70
2023/09/30 06:24:41;;;;;;;3.63;1.60;;;;;;;20.79;73.29;101316.09;4991246;28;20446;-70
2023/09/30 06:27:07;;;;;;;3.90;1.70;;;;;;;20.79;73.27;101315.25;5008505;28;20181;-70
2023/09/30 06:29:33;;;;;;;3.30;1.37;;;;;;;20.80;73.14;101314.06;4992784;28;20193;-70
2023/09/30 06:31:59;;;;;;;2.90;1.47;;;;;;;20.79;72.96;101313.22;5006557;28;20229;-70
2023/09/30 06:34:25;;;;;;;2.80;1.37;;;;;;;20.78;73.34;101302.94;4991747;28;20541;-70
2023/09/30 06:36:52;;;;;;;2.70;1.20;;;;;;;20.79;73.17;101304.63;4991904;28;20158;-70
2023/09/30 06:39:17;;;;;;;3.27;1.40;;;;;;;20.79;72.95;101309.53;4993301;28;20435;-70
2023/09/30 06:41:43;;;;;;;3.60;1.77;;;;;;;20.80;72.76;101308.31;5010813;28;20531;-70
2023/09/30 06:44:09;;;;;;;3.40;1.93;;;;;;;20.79;72.85;101307.50;5011762;28;20566;-70
2023/09/30 06:46:34;;;;;;;3.17;1.40;;;;;;;20.79;73.03;101298.88;5009322;28;20185;-70
2023/09/30 06:48:59;;;;;;;2.67;1.33;;;;;;;20.79;73.55;101307.50;5011973;28;20259;-66
2023/09/30 06:51:26;;;;;;;2.60;1.40;;;;;;;20.79;73.11;101309.53;5010834;28;20169;-66
2023/09/30 06:53:52;;;;;;;3.30;1.40;;;;;;;20.78;73.23;101302.94;5006546;28;20181;-66
2023/09/30 06:56:18;;;;;;;2.90;1.40;;;;;;;20.79;72.83;101309.53;4993787;28;20784;-66
2023/09/30 06:58:43;;;;;;;3.80;1.67;;;;;;;20.78;73.49;101308.66;5007061;28;20252;-66
2023/09/30 07:01:08;;;;;;;3.13;1.60;;;;;;;20.78;73.14;101311.53;4993483;28;20173;-66
2023/09/30 07:03:34;;;;;;;3.73;1.63;;;;;;;20.79;73.15;101321.84;5011465;28;20867;-66
2023/09/30 07:06:00;;;;;;;3.37;1.50;;;;;;;20.79;72.95;101327.59;5010543;28;20936;-65
2023/09/30 07:08:29;;;;;;;3.70;1.50;;;;;;;20.78;73.09;101337.38;4990413;28;20217;-66
2023/09/30 07:10:56;;;;;;;3.20;1.47;;;;;;;20.80;73.52;101334.13;4994283;28;20467;-66
2023/09/30 07:13:21;;;;;;;3.13;1.20;;;;;;;20.79;73.00;101333.31;4993374;28;20462;-66
2023/09/30 07:15:47;;;;;;;3.57;1.57;;;;;;;20.80;72.99;101340.72;5005816;28;20515;-66
2023/09/30 07:18:12;;;;;;;3.10;1.60;;;;;;;20.80;73.07;101352.22;4990043;28;20866;-66
2023/09/30 07:20:38;;;;;;;3.20;1.67;;;;;;;20.80;73.10;101348.50;4989855;28;20189;-66
2023/09/30 07:23:03;;;;;;;3.20;1.47;;;;;;;20.80;73.14;101349.34;5010278;28;20595;-66
2023/09/30 07:25:31;;;;;;;3.33;1.50;;;;;;;20.80;73.01;101352.22;5010518;28;20637;-65
2023/09/30 07:27:57;;;;;;;2.97;1.43;;;;;;;20.79;73.12;101350.53;4996804;28;20181;-66
2023/09/30 07:30:23;;;;;;;3.60;1.60;;;;;;;20.79;73.13;101350.53;4993979;28;20842;-66
2023/09/30 07:32:48;;;;;;;3.10;1.50;;;;;;;20.79;73.07;101353.41;5011013;28;20416;-65
2023/09/30 07:35:15;;;;;;;3.20;1.53;;;;;;;20.79;73.30;101359.16;4991736;28;20200;-65
2023/09/30 07:37:41;;;;;;;3.33;1.33;;;;;;;20.79;72.66;101356.28;4990864;28;20193;-66
2023/09/30 07:40:07;;;;;;;3.20;1.40;;;;;;;20.80;73.01;101352.22;5010638;28;20422;-65
2023/09/30 07:42:33;;;;;;;2.70;1.27;;;;;;;20.78;73.25;101348.84;5008100;28;20487;-65
2023/09/30 07:44:58;;;;;;;2.70;1.27;;;;;;;20.79;73.34;101341.94;4993786;28;20884;-66
2023/09/30 07:47:24;;;;;;;3.07;1.63;;;;;;;20.80;73.17;101345.63;4980895;28;20185;-66
2023/09/30 07:49:52;;;;;;;2.73;1.43;;;;;;;20.80;72.99;101343.59;4988780;28;20225;-66
2023/09/30 07:52:18;;;;;;;2.60;1.27;;;;;;;20.80;72.85;101345.63;4972110;28;20182;-66
2023/09/30 07:54:43;;;;;;;2.90;1.13;;;;;;;20.80;72.95;101348.50;4995189;28;20427;-65
2023/09/30 07:57:08;;;;;;;3.57;1.77;;;;;;;20.79;73.24;101344.81;4990076;28;20173;-66
2023/09/30 07:59:34;;;;;;;2.63;1.30;;;;;;;20.79;73.06;101343.97;4977457;28;20677;-66
2023/09/30 08:02:01;;;;;;;3.13;1.60;;;;;;;20.80;73.22;101345.63;4997730;28;20196;-66
2023/09/30 08:04:26;;;;;;;2.23;1.07;;;;;;;20.80;72.94;101349.34;4987844;28;20215;-65
2023/09/30 08:06:53;;;;;;;3.80;1.77;;;;;;;20.80;73.07;101343.59;5001572;28;20444;-66
2023/09/30 08:09:18;;;;;;;2.90;1.30;;;;;;;20.80;72.55;101348.50;5006696;28;20205;-70
2023/09/30 08:11:44;;;;;;;3.50;1.77;;;;;;;20.80;73.04;101337.00;4992381;28;20877;-70
2023/09/30 08:14:10;;;;;;;2.77;1.27;;;;;;;20.79;73.34;101341.94;5007416;28;20718;-70
2023/09/30 08:16:36;;;;;;;2.80;1.17;;;;;;;20.80;73.34;101339.88;5008615;28;20885;-70
2023/09/30 08:19:03;;;;;;;2.83;1.30;;;;;;;20.80;73.32;101334.13;4967717;28;20191;-70
2023/09/30 08:21:28;;;;;;;3.10;1.37;;;;;;;20.81;72.61;101338.66;4975982;28;20431;-70
2023/09/30 08:23:54;;;;;;;3.20;1.60;;;;;;;20.82;72.91;101348.97;4989740;28;21108;-70
2023/09/30 08:26:19;;;;;;;3.27;1.67;;;;;;;20.81;73.11;101335.81;4991880;28;20540;-70
2023/09/30 08:28:45;;;;;;;2.80;1.30;;;;;;;20.80;73.17;101343.59;4988084;28;20186;-70
2023/09/30 08:31:10;;;;;;;4.27;1.83;;;;;;;20.80;73.29;101352.22;5002854;28;20188;-70
2023/09/30 08:33:43;;;;;;;3.57;1.20;;;;;;;20.81;73.04;101353.03;5005837;28;20199;-70
2023/09/30 08:36:10;;;;;;;2.40;1.37;;;;;;;20.80;72.79;101355.06;4995613;28;20181;-70
2023/09/30 08:38:36;;;;;;;3.10;1.53;;;;;;;20.82;73.01;101358.41;4988659;28;20429;-70
2023/09/30 08:41:02;;;;;;;2.90;1.40;;;;;;;20.80;73.18;101355.06;4987242;28;20530;-70
2023/09/30 08:43:30;;;;;;;4.60;1.60;;;;;;;20.81;72.75;101358.75;5008221;28;20483;-70
2023/09/30 08:45:56;;;;;;;2.57;1.33;;;;;;;20.81;73.32;101350.16;4989655;28;20436;-70
2023/09/30 08:48:22;;;;;;;2.77;1.53;;;;;;;20.80;72.87;101349.34;5004814;28;20484;-70
2023/09/30 08:50:49;;;;;;;3.73;1.43;;;;;;;20.82;72.73;101357.59;4990707;28;20223;-70
2023/09/30 08:53:15;;;;;;;4.40;1.90;;;;;;;20.83;72.59;101350.63;4991690;28;20412;-71
2023/09/30 08:55:40;;;;;;;4.80;1.30;;;;;;;20.82;72.42;101352.66;4986929;28;20456;-71
2023/09/30 08:58:06;;;;;;;2.40;1.20;;;;;;;20.81;73.42;101358.75;4991047;28;20404;-74
2023/09/30 09:00:31;;;;;;;3.97;1.43;;;;;;;20.80;73.07;101357.94;4973008;28;20188;-72
2023/09/30 09:02:57;;;;;;;5.07;2.13;;;;;;;20.80;73.20;101355.06;4985724;28;20527;-72
2023/09/30 09:05:22;;;;;;;5.13;2.60;;;;;;;20.79;72.95;101353.41;4990294;28;20641;-71
2023/09/30 09:07:47;;;;;;;5.67;2.50;;;;;;;20.78;72.59;101345.16;5006945;28;20189;-71
2023/09/30 09:10:13;;;;;;;7.27;2.73;;;;;;;20.79;72.84;101350.53;5008422;28;20904;-70
2023/09/30 09:12:39;;;;;;;4.80;2.63;;;;;;;20.79;72.08;101352.56;5007186;28;20177;-71
2023/09/30 09:15:06;;;;;;;4.97;2.40;;;;;;;20.79;71.47;101355.44;5007082;28;20723;-71
2023/09/30 09:17:44;;;;;;;9.87;3.27;;;;;;;20.78;71.82;101345.16;4990172;28;20625;-71
2023/09/30 09:20:20;;;;;;;7.23;2.60;;;;;;;20.78;71.62;101340.25;4984089;28;21118;-67
2023/09/30 09:22:45;;;;;;;12.43;3.07;;;;;;;20.77;71.98;101341.47;5004904;28;20423;-67
2023/09/30 09:25:11;;;;;;;7.87;3.60;;;;;;;20.77;71.85;101324.22;4974199;28;20525;-67
2023/09/30 09:27:37;;;;;;;9.87;3.40;;;;;;;20.77;71.62;101323.41;4990808;28;20716;-67
2023/09/30 09:30:22;;;;;;;6.57;3.23;;;;;;;20.77;71.13;101317.69;4988166;28;20197;-67
2023/09/30 09:33:07;;;;;;;9.97;3.10;;;;;;;20.77;70.90;101327.09;5006336;28;20548;-67
2023/09/30 09:35:34;;;;;;;6.87;3.53;;;;;;;20.76;71.18;101325.44;5006448;28;20435;-67
2023/09/30 09:38:04;;;;;;;6.73;3.03;;;;;;;20.76;70.91;101331.19;4971633;28;20478;-67
2023/09/30 09:40:32;;;;;;;14.60;5.10;;;;;;;20.77;71.01;101334.91;5002081;28;20808;-67
2023/09/30 09:42:58;;;;;;;8.53;3.80;;;;;;;20.77;70.50;101329.16;4978667;28;20420;-67
2023/09/30 09:45:27;;;;;;;6.97;3.00;;;;;;;20.76;70.66;101334.06;4984581;28;20472;-67
2023/09/30 09:47:53;;;;;;;7.10;3.50;;;;;;;20.77;70.19;101340.63;4991602;28;20785;-67
2023/09/30 09:50:20;;;;;;;6.67;3.13;;;;;;;20.77;70.31;101332.03;4990200;28;20444;-68
2023/09/30 09:52:47;;;;;;;8.30;3.60;;;;;;;20.76;69.60;101339.78;5003439;28;20444;-66
2023/09/30 09:55:13;;;;;;;9.60;3.27;;;;;;;20.76;70.14;101336.06;4986911;28;20919;-67
2023/09/30 09:57:38;;;;;;;9.13;3.43;;;;;;;20.75;69.83;101326.66;5007893;28;20428;-66
2023/09/30 10:00:13;;;;;;;8.33;3.40;;;;;;;20.76;69.47;101331.19;4960447;28;20227;-66
2023/09/30 10:02:42;;;;;;;7.00;3.87;;;;;;;20.76;69.51;101331.19;4990380;28;20192;-66
2023/09/30 10:05:08;;;;;;;7.60;3.60;;;;;;;20.78;69.69;101337.38;4999349;28;21010;-66
2023/09/30 10:07:45;;;;;;;6.33;3.50;;;;;;;20.79;69.76;101332.47;4990784;28;20443;-66
2023/09/30 10:10:16;;;;;;;8.57;3.70;;;;;;;20.79;69.55;101329.59;4993308;28;20489;-66
2023/09/30 10:12:42;;;;;;;5.80;3.13;;;;;;;20.79;69.65;101321.00;4993011;28;20544;-66
2023/09/30 10:15:34;;;;;;;5.10;3.00;;;;;;;20.78;69.83;101323.03;5009953;28;20551;-66
2023/09/30 10:18:12;;;;;;;5.20;2.97;;;;;;;20.81;69.85;101319.41;5001969;28;20594;-67
2023/09/30 10:20:43;;;;;;;9.30;3.60;;;;;;;20.95;75.93;101319.81;4987752;28;20809;-67
2023/09/30 10:23:21;;;;;;;8.77;3.57;;;;;;;20.98;77.16;101321.09;4991964;28;20435;-67
2023/09/30 10:25:47;;;;;;;7.47;3.40;;;;;;;20.98;75.96;101316.19;5008265;28;20526;-66
2023/09/30 10:28:38;;;;;;;11.00;3.80;;;;;;;20.97;73.37;101320.25;4962446;28;20483;-67
2023/09/30 10:31:13;;;;;;;8.20;3.80;;;;;;;21.12;74.73;101324.31;4966049;28;20472;-70
2023/09/30 10:34:01;;;;;;;12.63;4.57;;;;;;;21.33;76.35;101327.69;5010938;28;20604;-71
2023/09/30 10:36:33;;;;;;;9.93;5.50;;;;;;;21.33;76.59;101322.75;5008231;28;20427;-71
2023/09/30 10:38:59;;;;;;;9.97;6.03;;;;;;;21.37;75.56;101308.50;4963500;28;20452;-70
2023/09/30 10:44:32;;;;;;;25.80;7.67;;;;;;;21.51;74.92;101311.69;5009246;28;20431;-70
2023/09/30 10:46:58;;;;;;;11.70;7.40;;;;;;;21.55;75.09;101303.97;4985007;28;20811;-70
2023/09/30 10:49:23;;;;;;;17.97;7.40;;;;;;;21.60;73.93;101310.25;4988626;28;20987;-70
2023/09/30 10:52:02;;;;;;;18.73;8.07;;;;;;;21.63;73.46;101311.56;5005781;28;20443;-70
2023/09/30 10:54:28;;;;;;;18.90;8.77;;;;;;;21.57;72.83;101316.75;5007873;28;20196;-69
2023/09/30 10:56:54;;;;;;;13.67;6.83;;;;;;;21.52;72.92;101305.56;5008240;28;21245;-69
2023/09/30 10:59:23;;;;;;;13.33;6.70;;;;;;;21.49;73.28;101294.84;4990968;28;20425;-69
2023/09/30 11:01:49;;;;;;;24.97;6.50;;;;;;;21.51;72.27;101303.06;5005053;28;20185;-69
2023/09/30 11:04:15;;;;;;;14.50;6.40;;;;;;;21.55;71.81;101292.47;4952170;28;20448;-69
2023/09/30 11:06:41;;;;;;;14.07;5.60;;;;;;;21.50;71.55;101296.50;5000639;28;20444;-70
2023/09/30 11:09:12;;;;;;;17.30;5.67;;;;;;;21.55;70.67;101284.69;5000674;28;20181;-69
2023/09/30 11:11:48;;;;;;;10.43;4.93;;;;;;;21.50;71.47;101285.00;4988483;28;20824;-70
2023/09/30 11:14:32;;;;;;;11.23;4.90;;;;;;;21.45;70.84;101288.16;5005570;28;20435;-70
2023/09/30 11:17:01;;;;;;;8.97;4.33;;;;;;;21.46;70.75;101284.09;4991837;28;20475;-71
2023/09/30 11:19:28;;;;;;;10.50;4.80;;;;;;;21.49;69.99;101294.84;5005604;28;20443;-70
2023/09/30 11:21:54;;;;;;;12.37;5.03;;;;;;;21.49;70.30;101279.63;4990950;28;20430;-69
2023/09/30 11:24:20;;;;;;;10.17;4.67;;;;;;;21.48;70.52;101284.53;4990354;28;20444;-70
2023/09/30 11:26:46;;;;;;;12.60;4.43;;;;;;;21.51;70.06;101280.06;4990564;28;20495;-70